Hampton, New York
Current Conditions -  °F | °C
As of 1:35 AM on Wednesday 28 Jan 2015 (Local Time) from KRUT Reporting Station
Broken Clouds Broken Clouds  
Wind Chill: -9°   Ceiling: 3500
Heat Index:   Visibility: 10mi
Dew Point:   Wind: 13mph
Humidity: 72%   Direction: 330°NNW
Pressure: 29.82"   Gusts: 24mph
Location:  43.52°N, 73.25°W
Report Text: KRUT 280635Z 33011G21KT 10SM BKN035 M14/M18 A2982 RMK AO1
Loading
Personal Weather Stations






























Interactive Weather Map New forecast layout! Learn more

10-Day Weather Forecast

Advertisements
Track Severe Weather on mobile